Time;durP1;ratioP1;P1;durP2;ratioP2;P2;SDS_P1;SDS_P2;PMS_P1;PMS_P2;Temp;Humidity;BMP_temperature;BMP_pressure;BME280_temperature;BME280_humidity;BME280_pressure;Samples;Min_cycle;Max_cycle;Signal;HPM_P1;HPM_P2
2023/12/24 00:01:37;;;;;;;47.53;26.35;;;;;;;10.71;55.78;100035.97;5083764;28;20040;-84
2023/12/24 00:04:32;;;;;;;37.50;23.70;;;;;;;10.63;54.19;100034.09;5078522;28;20045;-84
2023/12/24 00:07:21;;;;;;;41.35;25.67;;;;;;;10.36;53.76;100038.13;5084524;28;20044;-84
2023/12/24 00:10:13;;;;;;;35.97;22.30;;;;;;;10.34;54.35;100059.41;5080678;28;20048;-84
2023/12/24 00:13:08;;;;;;;43.63;23.07;;;;;;;9.83;54.85;100082.16;5078173;28;20040;-85
2023/12/24 00:16:02;;;;;;;41.27;23.30;;;;;;;9.53;56.26;100102.22;5082555;28;20401;-84
2023/12/24 00:18:57;;;;;;;40.58;25.00;;;;;;;9.72;55.70;100108.88;5083998;28;20044;-84
2023/12/24 00:21:49;;;;;;;31.00;17.33;;;;;;;9.97;54.92;100100.94;5077650;28;20523;-84
2023/12/24 00:24:43;;;;;;;33.60;20.35;;;;;;;10.05;55.08;100109.09;5079922;28;20508;-84
2023/12/24 00:27:35;;;;;;;43.38;24.88;;;;;;;10.17;56.76;100092.91;5079106;28;20045;-84
2023/12/24 00:30:33;;;;;;;40.28;25.20;;;;;;;10.67;57.52;100084.75;5068588;28;20028;-84
2023/12/24 00:33:27;;;;;;;35.88;23.10;;;;;;;10.54;54.17;100074.94;5083400;28;20036;-84
2023/12/24 00:36:22;;;;;;;46.63;23.17;;;;;;;10.48;54.15;100094.47;5084214;28;20041;-84
2023/12/24 00:39:16;;;;;;;31.08;17.67;;;;;;;10.43;53.58;100100.91;5077260;28;20040;-85
2023/12/24 00:42:08;;;;;;;42.85;25.20;;;;;;;10.19;54.48;100114.31;5068391;28;20036;-84
2023/12/24 00:45:03;;;;;;;47.05;25.27;;;;;;;10.09;54.70;100111.94;5078802;28;20036;-84
2023/12/24 00:47:57;;;;;;;45.13;26.47;;;;;;;10.16;55.22;100110.31;5065423;28;20036;-85
2023/12/24 00:50:49;;;;;;;42.97;24.43;;;;;;;10.06;54.79;100102.50;5077733;28;20036;-84
2023/12/24 00:53:44;;;;;;;36.33;23.77;;;;;;;10.01;54.23;100108.13;5070485;28;20040;-84
2023/12/24 00:56:36;;;;;;;42.90;24.47;;;;;;;9.94;54.71;100091.53;5087446;28;20040;-84
2023/12/24 00:59:31;;;;;;;42.47;24.45;;;;;;;9.84;55.41;100070.19;5071066;28;20040;-84
2023/12/24 01:02:25;;;;;;;42.38;25.30;;;;;;;9.66;55.92;100074.06;5087426;28;20040;-85
2023/12/24 01:05:20;;;;;;;31.15;18.75;;;;;;;9.66;55.41;100074.88;5066860;28;20040;-84
2023/12/24 01:08:14;;;;;;;38.55;23.38;;;;;;;9.92;55.06;100088.34;5087215;28;20036;-85
2023/12/24 01:11:12;;;;;;;40.70;24.73;;;;;;;9.85;54.79;100099.72;5066415;28;20067;-84
2023/12/24 01:14:04;;;;;;;41.90;24.27;;;;;;;10.02;54.54;100106.19;5080286;28;20044;-84
2023/12/24 01:16:59;;;;;;;41.28;23.05;;;;;;;9.77;54.62;100114.13;5072376;28;20045;-85
2023/12/24 01:19:54;;;;;;;36.05;22.05;;;;;;;9.95;54.43;100108.66;5064774;28;20049;-85
2023/12/24 01:22:49;;;;;;;30.08;17.98;;;;;;;9.60;55.51;100113.38;5070235;28;20044;-83
2023/12/24 01:25:39;;;;;;;34.90;22.57;;;;;;;9.92;55.74;100106.56;5066994;28;20044;-84
2023/12/24 01:28:26;;;;;;;34.92;21.35;;;;;;;9.81;54.92;100108.84;5064991;28;20426;-83
2023/12/24 01:31:21;;;;;;;39.45;23.20;;;;;;;9.55;55.81;100129.84;5071175;28;20051;-83
2023/12/24 01:34:15;;;;;;;36.33;22.10;;;;;;;9.76;54.46;100130.72;5069354;28;20036;-84
2023/12/24 01:37:10;;;;;;;38.30;22.83;;;;;;;9.95;53.71;100142.03;5071359;28;20564;-84
2023/12/24 01:40:02;;;;;;;31.40;18.70;;;;;;;9.92;54.10;100148.09;5079721;28;20072;-85
2023/12/24 01:42:57;;;;;;;40.10;22.33;;;;;;;10.02;53.32;100142.31;5079930;28;20051;-85
2023/12/24 01:45:44;;;;;;;31.23;19.30;;;;;;;9.93;54.58;100157.84;5071061;28;20040;-84
2023/12/24 01:48:34;;;;;;;45.72;26.98;;;;;;;9.39;56.84;100170.25;5070942;28;20051;-85
2023/12/24 01:51:32;;;;;;;40.08;26.15;;;;;;;9.41;57.69;100178.84;5079047;28;20043;-84
2023/12/24 01:54:26;;;;;;;29.38;18.67;;;;;;;9.56;55.63;100191.13;5081053;28;20063;-85
2023/12/24 01:57:21;;;;;;;38.05;21.42;;;;;;;9.32;56.05;100167.22;5085489;28;20513;-84
2023/12/24 02:00:14;;;;;;;39.70;25.05;;;;;;;9.41;55.70;100166.09;5085194;28;20067;-83
2023/12/24 02:03:07;;;;;;;37.20;22.55;;;;;;;9.20;54.74;100158.91;5085261;28;20036;-83
2023/12/24 02:06:00;;;;;;;37.28;23.23;;;;;;;9.01;56.32;100165.44;5071103;28;20067;-85
2023/12/24 02:08:55;;;;;;;37.25;23.17;;;;;;;9.34;55.26;100176.63;5082502;28;20040;-85
2023/12/24 02:11:47;;;;;;;38.42;19.63;;;;;;;9.15;57.88;100184.28;5085098;28;20063;-85
2023/12/24 02:14:39;;;;;;;39.58;22.35;;;;;;;9.39;57.05;100170.25;5067139;28;20039;-84
2023/12/24 02:17:33;;;;;;;42.90;24.55;;;;;;;9.31;59.24;100158.28;5086189;28;20056;-83
2023/12/24 02:20:32;;;;;;;48.08;25.40;;;;;;;9.03;57.62;100151.59;5079501;28;20406;-84
2023/12/24 02:23:26;;;;;;;47.35;25.40;;;;;;;8.96;59.17;100153.97;5068385;28;20044;-84
2023/12/24 02:26:32;;;;;;;39.60;23.77;;;;;;;9.00;58.25;100171.19;5084663;28;20045;-84
2023/12/24 02:29:29;;;;;;;36.53;21.98;;;;;;;8.74;57.42;100182.00;5082180;28;20032;-84
2023/12/24 02:32:23;;;;;;;37.65;23.02;;;;;;;9.11;56.32;100177.09;5079319;28;20051;-83
2023/12/24 02:35:17;;;;;;;37.92;22.38;;;;;;;9.26;55.24;100166.56;5078496;28;20059;-84
2023/12/24 02:38:12;;;;;;;29.05;17.70;;;;;;;9.16;55.27;100185.88;5070323;28;20040;-83
2023/12/24 02:41:04;;;;;;;32.57;16.90;;;;;;;9.04;55.80;100180.28;5084642;28;20040;-85
2023/12/24 02:43:56;;;;;;;42.28;24.40;;;;;;;9.11;56.10;100185.22;5082382;28;20267;-83
2023/12/24 02:46:48;;;;;;;39.65;22.88;;;;;;;9.00;55.94;100193.69;5084656;28;20127;-84
2023/12/24 02:49:40;;;;;;;39.83;23.08;;;;;;;9.01;56.05;100178.22;5063577;28;20502;-84
2023/12/24 02:52:34;;;;;;;38.03;22.73;;;;;;;8.81;55.96;100170.69;5084952;28;20041;-84
2023/12/24 02:55:29;;;;;;;37.28;22.15;;;;;;;8.94;56.31;100186.00;5077713;28;20036;-84
2023/12/24 02:58:23;;;;;;;28.17;17.77;;;;;;;9.04;55.34;100204.69;5079527;28;20409;-83
2023/12/24 03:01:16;;;;;;;32.53;18.50;;;;;;;8.90;55.55;100198.59;5081603;28;20047;-84
2023/12/24 03:04:11;;;;;;;42.15;22.30;;;;;;;8.67;54.80;100191.72;5067026;28;20512;-84
2023/12/24 03:07:05;;;;;;;39.87;22.10;;;;;;;8.03;57.25;100189.34;5084418;28;20422;-84
2023/12/24 03:10:00;;;;;;;27.98;16.88;;;;;;;8.45;56.62;100214.28;5066607;28;20648;-84
2023/12/24 03:12:54;;;;;;;44.72;25.13;;;;;;;8.36;56.74;100216.94;5082957;28;20056;-83
2023/12/24 03:15:49;;;;;;;43.17;23.52;;;;;;;8.25;56.60;100204.75;5077871;28;20049;-83
2023/12/24 03:18:44;;;;;;;33.85;21.38;;;;;;;8.10;57.52;100187.00;5078600;28;20048;-84
2023/12/24 03:21:41;;;;;;;40.30;21.50;;;;;;;8.27;56.63;100199.03;5069112;28;20055;-83
2023/12/24 03:24:31;;;;;;;40.53;23.23;;;;;;;8.50;56.03;100212.22;5064889;28;20041;-84
2023/12/24 03:27:23;;;;;;;39.58;21.77;;;;;;;8.72;55.31;100224.88;5084592;28;20047;-85
2023/12/24 03:30:18;;;;;;;37.90;22.17;;;;;;;8.81;54.65;100217.56;5083563;28;20028;-84
2023/12/24 03:33:12;;;;;;;29.33;17.27;;;;;;;8.86;55.12;100219.34;5078144;28;20043;-85
2023/12/24 03:36:08;;;;;;;33.20;20.27;;;;;;;8.84;53.83;100195.25;5084544;28;20040;-84
2023/12/24 03:39:00;;;;;;;;;;;;;;;8.61;53.80;100210.03;5085277;28;20528;-85
2023/12/24 03:41:52;;;;;;;39.00;21.45;;;;;;;8.65;54.90;100215.59;5063459;28;19912;-84
2023/12/24 03:44:44;;;;;;;41.63;23.20;;;;;;;8.80;56.38;100215.97;5064926;28;20037;-85
2023/12/24 03:47:38;;;;;;;28.27;16.38;;;;;;;8.50;56.62;100228.47;5077356;28;20044;-84
2023/12/24 03:50:33;;;;;;;36.00;20.43;;;;;;;8.57;55.82;100239.69;5068754;28;20067;-84
2023/12/24 03:53:28;;;;;;;39.25;22.27;;;;;;;8.56;56.07;100219.09;5064807;28;20044;-84
2023/12/24 03:56:22;;;;;;;37.50;21.98;;;;;;;8.71;54.22;100222.50;5062773;28;20040;-85
2023/12/24 03:59:16;;;;;;;25.90;15.82;;;;;;;8.69;53.34;100230.13;5076752;28;20044;-84
2023/12/24 04:02:11;;;;;;;31.13;18.95;;;;;;;8.54;57.29;100234.88;5069004;28;20413;-85
2023/12/24 04:05:06;;;;;;;28.47;15.43;;;;;;;8.54;57.75;100250.31;5079373;28;20048;-85
2023/12/24 04:08:07;;;;;;;37.58;20.75;;;;;;;8.45;56.18;100247.59;5084023;28;20090;-84
2023/12/24 04:11:04;;;;;;;31.05;18.38;;;;;;;8.53;57.25;100263.06;5076942;28;20032;-83
2023/12/24 04:13:57;;;;;;;36.88;22.00;;;;;;;8.46;55.63;100251.91;5067256;28;20056;-83
2023/12/24 04:16:54;;;;;;;38.25;19.95;;;;;;;8.49;55.77;100242.31;5078659;28;20041;-84
2023/12/24 04:19:49;;;;;;;35.20;21.33;;;;;;;7.93;55.83;100268.13;5076655;28;20520;-84
2023/12/24 04:22:43;;;;;;;34.58;19.70;;;;;;;8.05;55.07;100262.97;5077306;28;20047;-84
2023/12/24 04:25:38;;;;;;;33.75;20.77;;;;;;;8.02;55.48;100252.75;5079342;28;20040;-83
2023/12/24 04:28:33;;;;;;;34.53;19.63;;;;;;;7.33;56.94;100243.31;5087520;28;20040;-84
2023/12/24 04:31:28;;;;;;;26.77;15.68;;;;;;;7.29;59.32;100247.72;5087298;28;20039;-84
2023/12/24 04:34:20;;;;;;;25.05;16.05;;;;;;;7.42;57.93;100246.88;5069369;28;20041;-84
2023/12/24 04:37:14;;;;;;;35.83;21.05;;;;;;;7.35;58.42;100257.34;5083896;28;20032;-83
2023/12/24 04:40:13;;;;;;;36.78;20.85;;;;;;;7.41;58.03;100266.94;5071281;28;20115;-83
2023/12/24 04:43:08;;;;;;;33.90;20.70;;;;;;;7.65;57.12;100266.66;5084766;28;20052;-84
2023/12/24 04:46:03;;;;;;;29.67;18.27;;;;;;;7.73;56.62;100264.00;5087257;28;20063;-83
2023/12/24 04:48:52;;;;;;;36.10;20.43;;;;;;;7.53;58.08;100269.09;5087265;28;20051;-84
2023/12/24 04:51:47;;;;;;;36.45;21.08;;;;;;;7.52;56.96;100260.16;5071296;28;20049;-83
2023/12/24 04:54:41;;;;;;;23.67;15.07;;;;;;;7.20;57.76;100271.19;5067469;28;20036;-83
2023/12/24 04:57:34;;;;;;;37.05;19.88;;;;;;;7.32;57.41;100276.84;5068942;28;20405;-82
2023/12/24 05:00:26;;;;;;;33.92;19.67;;;;;;;7.64;56.51;100284.00;5079513;28;20504;-83
2023/12/24 05:03:20;;;;;;;36.90;19.65;;;;;;;7.73;55.59;100291.06;5071440;28;20067;-84
2023/12/24 05:06:14;;;;;;;33.33;18.50;;;;;;;7.82;56.05;100290.34;5087378;28;20040;-84
2023/12/24 05:09:09;;;;;;;30.70;18.15;;;;;;;7.88;56.86;100286.41;5086599;28;20047;-84
2023/12/24 05:12:02;;;;;;;31.37;18.53;;;;;;;7.03;59.08;100271.00;5071902;28;20059;-84
2023/12/24 05:14:56;;;;;;;32.58;18.35;;;;;;;7.41;59.00;100280.47;5066893;28;20063;-84
2023/12/24 05:17:48;;;;;;;33.78;19.83;;;;;;;7.67;57.25;100286.88;5080134;28;20040;-84
2023/12/24 05:20:43;;;;;;;30.95;18.10;;;;;;;7.81;56.98;100291.44;5071466;28;20036;-84
2023/12/24 05:23:39;;;;;;;35.05;19.33;;;;;;;7.95;57.10;100297.59;5070821;28;20036;-84
2023/12/24 05:26:31;;;;;;;34.60;19.60;;;;;;;8.01;59.00;100286.34;5086733;28;20056;-84
2023/12/24 05:29:26;;;;;;;35.45;21.33;;;;;;;8.05;60.08;100302.78;5086765;28;20045;-84
2023/12/24 05:32:18;;;;;;;26.95;16.75;;;;;;;7.37;57.43;100298.38;5080252;28;20052;-84
2023/12/24 05:35:11;;;;;;;33.17;18.45;;;;;;;7.44;56.88;100301.50;5081271;28;20047;-84
2023/12/24 05:38:05;;;;;;;34.20;16.92;;;;;;;7.69;58.35;100319.06;5080544;28;20036;-85
2023/12/24 05:40:58;;;;;;;32.17;18.23;;;;;;;7.73;58.75;100314.63;5084728;28;20048;-84
2023/12/24 05:43:52;;;;;;;28.08;16.75;;;;;;;7.89;61.14;100321.28;5084977;28;20279;-83
2023/12/24 05:46:44;;;;;;;30.40;16.70;;;;;;;7.84;58.43;100328.72;5080452;28;20406;-84
2023/12/24 05:49:41;;;;;;;31.63;20.23;;;;;;;7.77;57.56;100320.25;5086288;28;20041;-83
2023/12/24 05:52:39;;;;;;;39.38;17.17;;;;;;;7.54;56.86;100330.22;5080153;28;20044;-83
2023/12/24 05:55:31;;;;;;;23.90;15.38;;;;;;;7.18;56.97;100330.16;5079917;28;20048;-84
2023/12/24 05:58:26;;;;;;;37.30;21.45;;;;;;;7.36;57.80;100329.25;5068144;28;20512;-85
2023/12/24 06:01:18;;;;;;;39.83;21.90;;;;;;;7.59;59.19;100349.84;5087037;28;20045;-85
2023/12/24 06:04:10;;;;;;;35.65;20.50;;;;;;;7.44;59.17;100352.06;5084076;28;20037;-84
2023/12/24 06:07:04;;;;;;;35.20;21.10;;;;;;;7.40;58.94;100351.91;5086156;28;20043;-84
2023/12/24 06:09:58;;;;;;;42.25;23.40;;;;;;;7.41;60.64;100358.91;5079464;28;20504;-83
2023/12/24 06:12:53;;;;;;;38.58;20.25;;;;;;;7.47;62.81;100362.28;5085024;28;20036;-83
2023/12/24 06:15:46;;;;;;;40.47;21.40;;;;;;;7.21;63.72;100359.31;5086469;28;20036;-84
2023/12/24 06:18:39;;;;;;;42.53;22.52;;;;;;;7.48;62.82;100369.28;5083972;28;20044;-83
2023/12/24 06:21:33;;;;;;;39.63;20.90;;;;;;;7.46;60.77;100361.50;5085059;28;20056;-85
2023/12/24 06:24:28;;;;;;;35.33;20.23;;;;;;;7.19;63.03;100361.53;5079500;28;20047;-84
2023/12/24 06:27:23;;;;;;;32.83;19.30;;;;;;;6.83;60.02;100375.72;5083202;28;20045;-84
2023/12/24 06:30:17;;;;;;;37.28;19.65;;;;;;;7.08;58.86;100382.53;5085209;28;20059;-84
2023/12/24 06:33:06;;;;;;;44.40;23.42;;;;;;;7.13;61.86;100378.94;5085587;28;20036;-85
2023/12/24 06:36:01;;;;;;;35.83;20.90;;;;;;;6.80;60.96;100379.03;5085738;28;20413;-84
2023/12/24 06:38:55;;;;;;;36.03;20.95;;;;;;;6.55;65.05;100384.09;5079598;28;20049;-85
2023/12/24 06:41:50;;;;;;;38.55;23.05;;;;;;;6.84;61.92;100393.53;5081035;28;20036;-85
2023/12/24 06:44:45;;;;;;;29.23;19.13;;;;;;;7.04;61.26;100392.38;5081304;28;20043;-84
2023/12/24 06:47:40;;;;;;;30.13;17.50;;;;;;;7.28;63.12;100375.94;5084019;28;20048;-84
2023/12/24 06:50:35;;;;;;;57.80;28.73;;;;;;;7.22;60.55;100377.13;5085298;28;20406;-84
2023/12/24 06:53:29;;;;;;;39.90;22.45;;;;;;;7.31;62.72;100375.34;5077565;28;20052;-84
2023/12/24 06:56:23;;;;;;;38.53;21.60;;;;;;;7.32;61.55;100388.53;5084464;28;20059;-84
2023/12/24 06:59:16;;;;;;;42.90;25.17;;;;;;;7.40;60.66;100395.16;5079068;28;20047;-83
2023/12/24 07:02:08;;;;;;;47.03;24.30;;;;;;;7.21;63.16;100397.19;5084393;28;20033;-84
2023/12/24 07:05:03;;;;;;;38.75;22.73;;;;;;;7.44;61.82;100411.59;5078948;28;20048;-83
2023/12/24 07:07:53;;;;;;;41.67;23.25;;;;;;;7.35;62.81;100418.81;5085431;28;20071;-84
2023/12/24 07:10:47;;;;;;;43.45;22.77;;;;;;;7.46;61.51;100415.63;5079618;28;20150;-84
2023/12/24 07:13:39;;;;;;;44.35;24.83;;;;;;;7.54;61.87;100414.88;5083427;28;20043;-83
2023/12/24 07:16:34;;;;;;;43.88;25.38;;;;;;;7.54;61.67;100428.41;5084456;28;20417;-85
2023/12/24 07:19:26;;;;;;;45.78;26.10;;;;;;;7.59;62.96;100427.50;5080855;28;20047;-83
2023/12/24 07:22:18;;;;;;;33.95;20.55;;;;;;;7.63;63.77;100440.13;5078591;28;20426;-84
2023/12/24 07:25:12;;;;;;;44.13;26.30;;;;;;;7.73;64.33;100441.81;5071581;28;20040;-83
2023/12/24 07:28:04;;;;;;;55.03;29.98;;;;;;;7.46;62.48;100445.38;5076649;28;20405;-84
2023/12/24 07:30:59;;;;;;;61.47;32.53;;;;;;;7.45;62.76;100454.59;5077142;28;20059;-84
2023/12/24 07:33:53;;;;;;;51.57;25.50;;;;;;;7.14;64.09;100467.06;5079827;28;20048;-84
2023/12/24 07:36:43;;;;;;;54.90;33.63;;;;;;;7.06;63.87;100475.88;5078179;28;20059;-83
2023/12/24 07:39:36;;;;;;;53.38;28.85;;;;;;;7.11;64.11;100483.91;5080950;28;20055;-83
2023/12/24 07:42:31;;;;;;;52.15;30.92;;;;;;;7.20;64.59;100492.91;5079893;28;20036;-83
2023/12/24 07:45:26;;;;;;;50.92;28.38;;;;;;;7.01;66.43;100481.38;5074744;28;20052;-83
2023/12/24 07:48:21;;;;;;;53.88;30.00;;;;;;;7.31;65.63;100489.72;5080710;28;20045;-83
2023/12/24 07:51:15;;;;;;;36.55;21.50;;;;;;;7.47;65.68;100489.44;5074665;28;20032;-83
2023/12/24 07:54:09;;;;;;;50.97;29.05;;;;;;;7.66;65.10;100503.69;5080102;28;20040;-83
2023/12/24 07:57:04;;;;;;;50.50;28.90;;;;;;;7.63;64.67;100498.84;5078250;28;20047;-83
2023/12/24 07:59:59;;;;;;;39.90;23.40;;;;;;;7.32;65.23;100496.72;5076633;28;20040;-83
2023/12/24 08:02:59;;;;;;;54.10;30.52;;;;;;;7.43;67.23;100491.94;5080315;28;20637;-83
2023/12/24 08:05:58;;;;;;;45.25;26.55;;;;;;;7.25;68.40;100495.53;5079573;28;20036;-83
2023/12/24 08:08:50;;;;;;;58.88;30.38;;;;;;;7.27;66.80;100498.72;5077365;28;20075;-83
2023/12/24 08:11:50;;;;;;;51.88;31.17;;;;;;;7.29;67.64;100496.53;5073777;28;20032;-83
2023/12/24 08:14:44;;;;;;;56.67;32.30;;;;;;;6.86;70.01;100495.94;5070770;28;20040;-83
2023/12/24 08:17:34;;;;;;;64.13;38.00;;;;;;;7.09;71.40;100499.59;5079743;28;20048;-84
2023/12/24 08:20:28;;;;;;;58.25;32.13;;;;;;;7.42;69.50;100500.34;5079001;28;20041;-84
2023/12/24 08:23:23;;;;;;;64.40;36.90;;;;;;;7.65;69.43;100507.50;5081680;28;20044;-83
2023/12/24 08:26:17;;;;;;;52.22;32.55;;;;;;;7.72;68.95;100502.47;5081703;28;20055;-84
2023/12/24 08:29:10;;;;;;;49.63;29.70;;;;;;;7.85;69.10;100506.28;5074598;28;20051;-84
2023/12/24 08:32:02;;;;;;;47.63;28.15;;;;;;;8.13;67.81;100499.72;5081356;28;20041;-84
2023/12/24 08:34:57;;;;;;;45.92;27.20;;;;;;;8.07;69.47;100514.47;5080583;28;20517;-84
2023/12/24 08:37:49;;;;;;;40.55;19.17;;;;;;;8.11;68.57;100507.34;5076547;28;20047;-84
2023/12/24 08:40:43;;;;;;;40.75;22.95;;;;;;;8.35;67.31;100509.81;5078494;28;20037;-84
2023/12/24 08:43:35;;;;;;;41.15;25.15;;;;;;;8.03;69.32;100514.28;5076175;28;20528;-83
2023/12/24 08:46:30;;;;;;;47.05;25.20;;;;;;;8.25;67.67;100516.25;5080509;28;20516;-84
2023/12/24 08:49:24;;;;;;;39.65;22.33;;;;;;;8.29;67.82;100525.38;5077109;28;20051;-85
2023/12/24 08:52:19;;;;;;;43.73;24.67;;;;;;;8.26;67.96;100531.41;5082132;28;20035;-86
2023/12/24 08:55:15;;;;;;;37.22;21.13;;;;;;;8.30;67.00;100528.91;5076812;28;20421;-84
2023/12/24 08:58:09;;;;;;;38.60;22.87;;;;;;;8.39;66.15;100525.16;5082088;28;20044;-84
2023/12/24 09:01:04;;;;;;;32.08;19.42;;;;;;;8.49;65.76;100535.78;5082203;28;20047;-84
2023/12/24 09:03:58;;;;;;;34.65;19.10;;;;;;;8.65;65.22;100538.94;5080334;28;20041;-84
2023/12/24 09:06:53;;;;;;;35.95;19.33;;;;;;;8.67;64.06;100552.19;5067467;28;20052;-83
2023/12/24 09:09:48;;;;;;;39.03;19.67;;;;;;;8.72;64.65;100565.63;5078284;28;20037;-83
2023/12/24 09:12:37;;;;;;;29.93;18.47;;;;;;;8.84;63.25;100574.00;5080721;28;20044;-83
2023/12/24 09:15:32;;;;;;;34.85;19.67;;;;;;;8.96;62.10;100571.56;5085668;28;20274;-82
2023/12/24 09:18:27;;;;;;;31.73;18.80;;;;;;;9.10;61.48;100571.50;5089326;28;20051;-82
2023/12/24 09:21:19;;;;;;;22.60;12.90;;;;;;;8.97;62.03;100567.75;5089710;28;20040;-81
2023/12/24 09:24:13;;;;;;;27.23;15.70;;;;;;;9.15;61.94;100568.66;5092079;28;20048;-82
2023/12/24 09:27:13;;;;;;;24.30;14.40;;;;;;;9.50;60.36;100573.19;5085220;28;20409;-80
2023/12/24 09:30:08;;;;;;;28.98;15.13;;;;;;;9.85;59.81;100585.03;5084814;28;20043;-80
2023/12/24 09:33:02;;;;;;;20.00;11.63;;;;;;;10.04;59.01;100584.78;5080627;28;20036;-79
2023/12/24 09:35:57;;;;;;;26.88;15.43;;;;;;;10.22;58.91;100587.25;5080855;28;20040;-80
2023/12/24 09:38:51;;;;;;;18.67;9.73;;;;;;;10.80;61.36;100607.84;5082338;28;20040;-82
2023/12/24 09:41:46;;;;;;;22.90;12.98;;;;;;;10.56;58.21;100610.22;5079113;28;20041;-81
2023/12/24 09:44:40;;;;;;;29.42;13.63;;;;;;;10.59;57.84;100601.41;5078421;28;20032;-82
2023/12/24 09:47:35;;;;;;;30.63;13.60;;;;;;;10.62;57.75;100607.00;5072181;28;20040;-81
2023/12/24 09:50:30;;;;;;;23.85;14.27;;;;;;;10.69;58.38;100622.84;5074291;28;20279;-81
2023/12/24 09:53:24;;;;;;;27.13;15.70;;;;;;;10.73;58.74;100627.34;5073693;28;20066;-81
2023/12/24 09:56:16;;;;;;;35.73;15.80;;;;;;;10.78;59.36;100620.94;5080625;28;20401;-83
2023/12/24 09:59:11;;;;;;;29.25;16.27;;;;;;;10.90;60.06;100618.41;5066205;28;20056;-83
2023/12/24 10:02:03;;;;;;;27.73;16.83;;;;;;;11.36;60.26;100614.22;5079221;28;20498;-83
2023/12/24 10:04:58;;;;;;;36.60;16.33;;;;;;;11.66;60.18;100618.63;5071886;28;20033;-83
2023/12/24 10:07:52;;;;;;;23.37;13.93;;;;;;;11.90;58.79;100616.19;5078933;28;20036;-82
2023/12/24 10:10:47;;;;;;;26.58;16.13;;;;;;;11.88;58.08;100599.38;5071331;28;20036;-82
2023/12/24 10:13:42;;;;;;;22.70;13.88;;;;;;;12.28;58.25;100607.19;5072593;28;20033;-82
2023/12/24 10:16:49;;;;;;;34.27;19.10;;;;;;;12.20;57.89;100602.56;5073182;28;20041;-81
2023/12/24 10:19:43;;;;;;;31.27;18.75;;;;;;;12.22;58.41;100608.50;5077518;28;20413;-81
2023/12/24 10:22:35;;;;;;;33.42;19.33;;;;;;;12.38;58.71;100607.63;5077441;28;20405;-82
2023/12/24 10:25:33;;;;;;;27.58;16.10;;;;;;;12.50;59.16;100601.44;5077252;28;20036;-82
2023/12/24 10:28:25;;;;;;;29.55;16.20;;;;;;;12.63;59.21;100600.41;5082046;28;20485;-82
2023/12/24 10:31:19;;;;;;;35.83;21.40;;;;;;;12.85;58.87;100600.06;5079427;28;20498;-82
2023/12/24 10:34:19;;;;;;;39.17;22.37;;;;;;;13.03;58.55;100594.47;5077091;28;20032;-82
2023/12/24 10:37:29;;;;;;;34.50;20.25;;;;;;;13.32;57.43;100594.38;5081301;28;20040;-81
2023/12/24 10:40:24;;;;;;;39.15;22.63;;;;;;;13.38;57.51;100590.31;5076895;28;20028;-82
2023/12/24 10:43:18;;;;;;;32.53;17.92;;;;;;;13.57;56.82;100587.84;5080719;28;20044;-81
2023/12/24 10:46:08;;;;;;;41.33;23.23;;;;;;;13.59;56.69;100595.72;5079975;28;20045;-82
2023/12/24 10:49:03;;;;;;;41.03;22.65;;;;;;;13.66;56.75;100588.56;5077204;28;20040;-81
2023/12/24 10:51:57;;;;;;;39.20;23.83;;;;;;;13.81;56.57;100586.31;5080955;28;20032;-81
2023/12/24 10:54:51;;;;;;;40.72;23.58;;;;;;;13.84;56.33;100577.44;5073980;28;20049;-81
2023/12/24 10:58:06;;;;;;;43.03;23.40;;;;;;;14.04;55.90;100571.06;5081874;28;20032;-81
2023/12/24 11:01:02;;;;;;;31.57;18.20;;;;;;;14.14;55.49;100576.06;5078018;28;20041;-82
2023/12/24 11:03:53;;;;;;;;;;;;;;;14.25;54.79;100574.47;5082862;28;20771;-81
2023/12/24 11:06:43;;;;;;;31.25;18.90;;;;;;;14.44;54.31;100580.19;5079578;28;20385;-81
2023/12/24 11:09:35;;;;;;;34.72;19.67;;;;;;;14.57;54.07;100563.75;5068967;28;20044;-82
2023/12/24 11:12:36;;;;;;;36.22;19.23;;;;;;;14.67;53.47;100563.28;5078106;28;20037;-82
2023/12/24 11:15:42;;;;;;;38.80;21.75;;;;;;;14.72;53.37;100563.84;5069473;28;20036;-82
2023/12/24 11:18:47;;;;;;;35.28;22.02;;;;;;;14.85;52.76;100554.44;5080664;28;20580;-82
2023/12/24 11:22:16;;;;;;;33.30;19.48;;;;;;;15.03;52.42;100549.47;5078084;28;20037;-81
2023/12/24 11:25:23;;;;;;;35.55;20.27;;;;;;;15.11;52.04;100543.03;5074904;28;20036;-82
2023/12/24 11:28:32;;;;;;;32.03;20.83;;;;;;;15.22;51.86;100546.88;5077987;28;20040;-82
2023/12/24 11:31:28;;;;;;;34.08;19.92;;;;;;;15.34;51.28;100537.75;5079873;28;20028;-82
2023/12/24 11:34:37;;;;;;;30.92;17.40;;;;;;;15.46;51.07;100523.19;5077175;28;20045;-81
2023/12/24 11:37:39;;;;;;;32.22;20.63;;;;;;;15.57;51.15;100524.31;5072280;28;20037;-82
2023/12/24 11:40:28;;;;;;;36.92;20.77;;;;;;;15.62;50.89;100519.34;5074896;28;20032;-82
2023/12/24 11:43:23;;;;;;;33.13;19.92;;;;;;;15.75;50.91;100528.28;5079598;28;20048;-82
2023/12/24 11:46:15;;;;;;;33.38;19.70;;;;;;;15.85;50.00;100518.75;5078156;28;20041;-82
2023/12/24 11:49:12;;;;;;;34.05;20.80;;;;;;;15.91;50.17;100523.56;5074544;28;20409;-81
2023/12/24 11:52:06;;;;;;;35.65;20.30;;;;;;;15.98;49.80;100512.78;5083994;28;20033;-81
2023/12/24 11:54:58;;;;;;;35.65;20.17;;;;;;;16.12;49.62;100506.81;5074096;28;20032;-82
2023/12/24 11:57:50;;;;;;;38.65;22.42;;;;;;;16.21;49.55;100502.72;5076081;28;20036;-82
2023/12/24 12:00:42;;;;;;;39.88;21.70;;;;;;;16.27;49.29;100487.56;5076632;28;20041;-82
2023/12/24 12:03:32;;;;;;;36.17;21.17;;;;;;;16.39;49.55;100488.59;5071402;28;20040;-82
2023/12/24 12:06:27;;;;;;;43.10;22.50;;;;;;;16.45;49.64;100492.66;5081627;28;20036;-82
2023/12/24 12:09:19;;;;;;;34.93;21.60;;;;;;;16.55;49.20;100497.59;5078939;28;20056;-82
2023/12/24 12:12:14;;;;;;;27.65;17.77;;;;;;;16.61;49.27;100496.94;5076130;28;20036;-82
2023/12/24 12:15:10;;;;;;;33.85;21.73;;;;;;;16.60;48.91;100491.84;5076451;28;20036;-82
2023/12/24 12:18:05;;;;;;;39.33;21.52;;;;;;;16.57;48.84;100504.28;5077849;28;20041;-81
2023/12/24 12:20:57;;;;;;;34.00;20.30;;;;;;;16.70;48.56;100502.25;5079774;28;20037;-81
2023/12/24 12:23:49;;;;;;;33.42;20.80;;;;;;;16.70;48.32;100499.50;5080762;28;20032;-82
2023/12/24 12:26:46;;;;;;;33.47;20.55;;;;;;;16.81;48.71;100500.47;5077379;28;20033;-82
2023/12/24 12:29:41;;;;;;;31.92;19.45;;;;;;;16.86;48.28;100502.16;5079649;28;20037;-82
2023/12/24 12:32:35;;;;;;;34.27;22.13;;;;;;;16.97;48.41;100490.22;5077635;28;20041;-82
2023/12/24 12:35:30;;;;;;;35.33;21.20;;;;;;;17.02;48.29;100494.59;5071920;28;20291;-82
2023/12/24 12:38:22;;;;;;;29.92;19.05;;;;;;;16.93;48.15;100486.59;5078271;28;20504;-82
2023/12/24 12:41:14;;;;;;;31.70;19.15;;;;;;;16.94;48.45;100481.91;5075260;28;20506;-82
2023/12/24 12:44:04;;;;;;;26.35;18.30;;;;;;;17.17;48.04;100490.19;5087617;28;20040;-81
2023/12/24 12:46:56;;;;;;;29.13;18.42;;;;;;;17.32;47.43;100481.81;5079498;28;20029;-82
2023/12/24 12:49:48;;;;;;;28.48;18.25;;;;;;;17.42;47.39;100486.69;5077632;28;20401;-81
2023/12/24 12:52:43;;;;;;;28.42;17.60;;;;;;;17.41;47.17;100482.38;5074766;28;20028;-82
2023/12/24 12:55:38;;;;;;;41.10;19.85;;;;;;;17.52;46.48;100477.84;5077871;28;20044;-82
2023/12/24 12:58:28;;;;;;;28.50;17.25;;;;;;;17.41;46.22;100479.66;5075782;28;20036;-82
2023/12/24 13:01:23;;;;;;;29.58;16.38;;;;;;;17.44;46.39;100478.91;5068940;28;20060;-82
2023/12/24 13:04:36;;;;;;;23.93;13.13;;;;;;;17.59;46.28;100479.13;5079928;28;20429;-82
2023/12/24 13:07:38;;;;;;;30.48;17.17;;;;;;;17.64;45.97;100478.84;5082129;28;20271;-82
2023/12/24 13:10:36;;;;;;;26.73;17.33;;;;;;;17.62;45.74;100478.44;5071226;28;20495;-81
2023/12/24 13:13:32;;;;;;;28.27;15.52;;;;;;;17.75;46.08;100488.06;5075050;28;20033;-82
2023/12/24 13:16:24;;;;;;;29.23;15.93;;;;;;;17.69;45.95;100482.09;5073220;28;20040;-82
2023/12/24 13:19:20;;;;;;;25.70;16.30;;;;;;;17.81;45.63;100486.59;5080775;28;20425;-81